Time;durP1;ratioP1;P1;durP2;ratioP2;P2;SDS_P1;SDS_P2;PMS_P1;PMS_P2;Temp;Humidity;BMP_temperature;BMP_pressure;BME280_temperature;BME280_humidity;BME280_pressure;Samples;Min_cycle;Max_cycle;Signal;HPM_P1;HPM_P2
2023/10/11 00:02:08;;;;;;;6.33;4.23;;;22.20;99.90;;;;;;5011009;28;20538;-59
2023/10/11 00:04:36;;;;;;;6.20;4.40;;;22.20;99.90;;;;;;5010975;28;20485;-56
2023/10/11 00:07:03;;;;;;;7.17;4.60;;;22.20;99.90;;;;;;5010534;28;20462;-51
2023/10/11 00:09:35;;;;;;;5.67;4.27;;;22.20;99.90;;;;;;5010815;28;20462;-58
2023/10/11 00:12:04;;;;;;;6.43;4.43;;;22.20;99.90;;;;;;5011609;28;20868;-57
2023/10/11 00:14:31;;;;;;;5.83;5.13;;;22.20;99.90;;;;;;5006819;28;20563;-57
2023/10/11 00:16:57;;;;;;;6.17;5.23;;;22.20;99.90;;;;;;5011750;28;20458;-59
2023/10/11 00:19:28;;;;;;;6.03;4.77;;;22.20;99.90;;;;;;5010343;28;20488;-55
2023/10/11 00:21:57;;;;;;;7.30;5.10;;;22.20;99.90;;;;;;5013440;28;20449;-59
2023/10/11 00:24:24;;;;;;;5.43;4.00;;;22.30;99.90;;;;;;5011268;28;20571;-56
2023/10/11 00:26:51;;;;;;;6.27;3.87;;;22.20;99.90;;;;;;5007283;28;20563;-56
2023/10/11 00:29:18;;;;;;;5.17;4.50;;;22.20;99.90;;;;;;5007443;28;20797;-55
2023/10/11 00:31:46;;;;;;;5.87;4.33;;;22.20;99.90;;;;;;5007007;28;20472;-56
2023/10/11 00:34:13;;;;;;;4.73;3.83;;;22.20;99.90;;;;;;5013809;28;20517;-55
2023/10/11 00:36:42;;;;;;;5.27;4.77;;;22.20;99.90;;;;;;5013118;28;20506;-54
2023/10/11 00:39:16;;;;;;;4.63;4.03;;;22.20;99.90;;;;;;5013626;28;20458;-57
2023/10/11 00:41:46;;;;;;;6.47;4.87;;;22.20;99.90;;;;;;5014534;28;20508;-55
2023/10/11 00:44:16;;;;;;;5.40;4.07;;;22.20;99.90;;;;;;5014192;28;20461;-56
2023/10/11 00:46:50;;;;;;;5.23;4.70;;;22.20;99.90;;;;;;5008812;28;20458;-57
2023/10/11 00:49:21;;;;;;;4.87;4.40;;;22.20;99.90;;;;;;5009255;28;20484;-54
2023/10/11 00:51:47;;;;;;;7.03;4.53;;;22.20;99.90;;;;;;5010755;28;20772;-59
2023/10/11 00:54:16;;;;;;;5.33;4.70;;;22.20;99.90;;;;;;5011113;28;20490;-60
2023/10/11 00:56:44;;;;;;;5.20;4.70;;;22.20;99.90;;;;;;5008679;28;20462;-61
2023/10/11 00:59:14;;;;;;;5.20;4.20;;;22.20;99.90;;;;;;5011424;28;20454;-54
2023/10/11 01:01:42;;;;;;;4.40;3.80;;;22.20;99.90;;;;;;5015967;28;20457;-57
2023/10/11 01:04:10;;;;;;;6.50;4.27;;;22.20;99.90;;;;;;5009892;28;20479;-56
2023/10/11 01:06:37;;;;;;;5.10;4.33;;;22.20;99.90;;;;;;5007750;28;20465;-59
2023/10/11 01:09:09;;;;;;;5.60;3.70;;;22.20;99.90;;;;;;5010453;28;20520;-55
2023/10/11 01:11:37;;;;;;;4.90;4.00;;;22.20;99.90;;;;;;5010697;28;20458;-59
2023/10/11 01:14:05;;;;;;;6.03;4.43;;;22.10;99.90;;;;;;5009023;28;22434;-58
2023/10/11 01:16:31;;;;;;;7.47;4.43;;;22.10;99.90;;;;;;5010322;28;20556;-59
2023/10/11 01:19:00;;;;;;;5.60;4.90;;;22.20;99.90;;;;;;5008750;28;20458;-59
2023/10/11 01:21:32;;;;;;;4.67;4.00;;;22.10;99.90;;;;;;5010849;28;20485;-53
2023/10/11 01:23:59;;;;;;;5.30;3.93;;;22.10;99.90;;;;;;5014984;28;22331;-57
2023/10/11 01:26:27;;;;;;;5.57;4.50;;;22.20;99.90;;;;;;5012065;28;20470;-53
2023/10/11 01:28:56;;;;;;;5.00;3.97;;;22.20;99.90;;;;;;5011794;28;20457;-55
2023/10/11 01:31:23;;;;;;;4.70;3.53;;;22.20;99.90;;;;;;5012777;28;20802;-54
2023/10/11 01:33:52;;;;;;;4.07;3.60;;;22.20;99.90;;;;;;5013166;28;20609;-58
2023/10/11 01:36:21;;;;;;;4.00;3.60;;;22.10;99.90;;;;;;5011236;28;20481;-59
2023/10/11 01:38:49;;;;;;;5.43;4.13;;;22.10;99.90;;;;;;5013159;28;21323;-59
2023/10/11 01:41:19;;;;;;;8.43;4.67;;;22.10;99.90;;;;;;5014563;28;21800;-59
2023/10/11 01:43:47;;;;;;;4.70;3.87;;;22.10;99.90;;;;;;5009194;28;20823;-56
2023/10/11 01:46:16;;;;;;;5.60;4.40;;;22.10;99.90;;;;;;5010474;28;20465;-58
2023/10/11 01:48:43;;;;;;;4.80;3.37;;;22.10;99.90;;;;;;5014556;28;20454;-56
2023/10/11 01:51:11;;;;;;;5.27;3.67;;;22.10;99.90;;;;;;5011859;28;20465;-56
2023/10/11 01:53:38;;;;;;;4.13;3.73;;;22.10;99.90;;;;;;5011738;28;20489;-58
2023/10/11 01:56:06;;;;;;;5.67;4.10;;;22.10;99.90;;;;;;5010857;28;21246;-56
2023/10/11 01:58:37;;;;;;;4.50;4.00;;;22.10;99.90;;;;;;5012813;28;20450;-60
2023/10/11 02:01:05;;;;;;;7.07;4.90;;;22.20;99.90;;;;;;5013883;28;20523;-58
2023/10/11 02:03:32;;;;;;;5.53;4.00;;;22.10;99.90;;;;;;5016174;28;20466;-54
2023/10/11 02:06:02;;;;;;;3.90;3.33;;;22.10;99.90;;;;;;5012901;28;20454;-60
2023/10/11 02:08:30;;;;;;;4.80;4.30;;;22.00;99.90;;;;;;5019180;28;20473;-50
2023/10/11 02:10:56;;;;;;;4.77;3.47;;;22.10;99.90;;;;;;5013676;28;20536;-56
2023/10/11 02:13:24;;;;;;;4.83;4.10;;;22.10;99.90;;;;;;5015177;28;20486;-56
2023/10/11 02:15:51;;;;;;;4.40;4.00;;;22.10;99.90;;;;;;5015611;28;20466;-59
2023/10/11 02:18:18;;;;;;;3.93;3.50;;;22.10;99.90;;;;;;5016290;28;20455;-57
2023/10/11 02:20:45;;;;;;;4.17;3.30;;;22.10;99.90;;;;;;5014147;28;20468;-59
2023/10/11 02:23:12;;;;;;;4.50;3.80;;;22.10;99.90;;;;;;5016375;28;21499;-59
2023/10/11 02:25:41;;;;;;;4.90;3.47;;;22.10;99.90;;;;;;5015062;28;20485;-53
2023/10/11 02:28:09;;;;;;;4.93;3.53;;;22.10;99.90;;;;;;5014790;28;21338;-55
2023/10/11 02:30:39;;;;;;;4.70;3.50;;;22.10;99.90;;;;;;5016002;28;20522;-58
2023/10/11 02:33:07;;;;;;;4.13;3.43;;;22.10;99.90;;;;;;5010390;28;20509;-56
2023/10/11 02:35:49;;;;;;;3.97;3.53;;;22.00;99.90;;;;;;5012975;28;20458;-58
2023/10/11 02:38:21;;;;;;;3.53;3.23;;;22.10;99.90;;;;;;5015419;28;20458;-56
2023/10/11 02:40:54;;;;;;;4.43;3.20;;;22.10;99.90;;;;;;5013873;28;20829;-57
2023/10/11 02:43:21;;;;;;;4.90;3.57;;;22.00;99.90;;;;;;5014689;28;20463;-53
2023/10/11 02:45:50;;;;;;;4.17;3.43;;;22.00;99.90;;;;;;5015859;28;20454;-60
2023/10/11 02:48:19;;;;;;;5.93;4.47;;;22.00;99.90;;;;;;5014807;28;20450;-58
2023/10/11 02:50:46;;;;;;;4.00;3.40;;;22.00;99.90;;;;;;5014280;28;22231;-61
2023/10/11 02:53:21;;;;;;;5.20;3.90;;;22.00;99.90;;;;;;5015497;28;20927;-58
2023/10/11 02:55:47;;;;;;;5.07;3.80;;;22.00;99.90;;;;;;5012907;28;20468;-54
2023/10/11 02:58:21;;;;;;;4.10;3.60;;;22.10;99.90;;;;;;5015387;28;20469;-56
2023/10/11 03:00:55;;;;;;;4.73;3.93;;;22.00;99.90;;;;;;5010785;28;20458;-58
2023/10/11 03:03:23;;;;;;;3.30;3.00;;;22.00;99.90;;;;;;5010715;28;20984;-59
2023/10/11 03:05:51;;;;;;;3.23;2.77;;;22.00;99.90;;;;;;5011556;28;20963;-56
2023/10/11 03:08:19;;;;;;;5.37;3.70;;;22.10;99.90;;;;;;5011717;28;20587;-55
2023/10/11 03:10:53;;;;;;;3.87;3.27;;;22.00;99.90;;;;;;5008508;28;21068;-57
2023/10/11 03:13:24;;;;;;;4.87;3.70;;;22.00;99.90;;;;;;5011565;28;21268;-54
2023/10/11 03:15:55;;;;;;;4.70;3.20;;;22.10;99.90;;;;;;5010994;28;20460;-53
2023/10/11 03:18:25;;;;;;;4.37;3.40;;;22.00;99.90;;;;;;5015084;28;20454;-55
2023/10/11 03:20:58;;;;;;;4.23;3.83;;;22.00;99.90;;;;;;5014642;28;20462;-58
2023/10/11 03:23:27;;;;;;;7.17;3.47;;;22.00;99.90;;;;;;5012035;28;20466;-56
2023/10/11 03:25:55;;;;;;;4.13;3.60;;;22.00;99.90;;;;;;5013639;28;20450;-57
2023/10/11 03:28:26;;;;;;;4.70;3.80;;;22.00;99.90;;;;;;5012763;28;20467;-52
2023/10/11 03:30:54;;;;;;;4.67;3.07;;;22.00;99.90;;;;;;5013561;28;21229;-59
2023/10/11 03:33:21;;;;;;;6.43;3.50;;;22.00;99.90;;;;;;5010236;28;20838;-57
2023/10/11 03:35:50;;;;;;;3.63;3.30;;;22.00;99.90;;;;;;5014106;28;20490;-56
2023/10/11 03:38:19;;;;;;;4.53;3.70;;;22.00;99.90;;;;;;5014937;28;20668;-51
2023/10/11 03:41:14;;;;;;;4.77;4.23;;;22.00;99.90;;;;;;5011714;28;20949;-52
2023/10/11 03:43:41;;;;;;;6.40;4.20;;;22.00;99.90;;;;;;5008308;28;20993;-59
2023/10/11 03:46:13;;;;;;;5.00;4.07;;;22.00;99.90;;;;;;5013351;28;20461;-59
2023/10/11 03:48:45;;;;;;;4.37;3.50;;;22.00;99.90;;;;;;5012110;28;21092;-55
2023/10/11 03:51:13;;;;;;;3.90;3.53;;;21.90;99.90;;;;;;5012973;28;21414;-60
2023/10/11 03:53:40;;;;;;;3.30;3.00;;;22.00;99.90;;;;;;5013420;28;20507;-56
2023/10/11 03:56:07;;;;;;;4.00;3.57;;;22.00;99.90;;;;;;5011059;28;20727;-54
2023/10/11 03:58:37;;;;;;;3.70;3.20;;;22.10;99.90;;;;;;5014483;28;20481;-56
2023/10/11 04:01:11;;;;;;;4.70;3.83;;;22.00;99.90;;;;;;5012331;28;20755;-57
2023/10/11 04:03:40;;;;;;;3.97;3.37;;;21.90;99.90;;;;;;5018073;28;20533;-57
2023/10/11 04:06:14;;;;;;;4.10;3.17;;;22.00;99.90;;;;;;5010545;28;20544;-57
2023/10/11 04:08:43;;;;;;;4.27;3.20;;;21.90;99.90;;;;;;5017407;28;20606;-59
2023/10/11 04:11:17;;;;;;;3.60;3.30;;;22.00;99.90;;;;;;5013684;28;21625;-56
2023/10/11 04:13:49;;;;;;;3.43;3.10;;;22.00;99.90;;;;;;5015469;28;20454;-57
2023/10/11 04:16:17;;;;;;;4.53;3.67;;;21.90;99.90;;;;;;5010259;28;20604;-60
2023/10/11 04:18:46;;;;;;;5.27;3.47;;;21.90;99.90;;;;;;5012768;28;20458;-59
2023/10/11 04:21:26;;;;;;;4.17;3.77;;;21.90;99.90;;;;;;5014832;28;20470;-58
2023/10/11 04:23:55;;;;;;;4.40;3.43;;;21.90;99.90;;;;;;5008409;28;20461;-59
2023/10/11 04:26:26;;;;;;;3.50;3.20;;;22.00;99.90;;;;;;5012058;28;20472;-57
2023/10/11 04:28:52;;;;;;;3.97;3.27;;;22.00;99.90;;;;;;5010419;28;20461;-57
2023/10/11 04:31:30;;;;;;;4.47;3.20;;;21.90;99.90;;;;;;5011983;28;20465;-53
2023/10/11 04:33:59;;;;;;;4.50;3.27;;;21.90;99.90;;;;;;5013259;28;20195;-60
2023/10/11 04:36:28;;;;;;;4.67;3.53;;;21.90;99.90;;;;;;5004628;28;21026;-57
2023/10/11 04:39:03;;;;;;;3.30;2.77;;;21.90;99.90;;;;;;5010738;28;20534;-55
2023/10/11 04:41:37;;;;;;;4.13;3.57;;;21.90;99.90;;;;;;5009936;28;20803;-57
2023/10/11 04:44:13;;;;;;;3.93;3.53;;;21.90;99.90;;;;;;5010761;28;22209;-55
2023/10/11 04:46:44;;;;;;;4.37;3.83;;;22.00;99.90;;;;;;5011599;28;20467;-60
2023/10/11 04:49:19;;;;;;;3.90;3.43;;;21.90;99.90;;;;;;5010231;28;20462;-56
2023/10/11 04:51:46;;;;;;;4.33;3.33;;;21.90;99.90;;;;;;5014336;28;20457;-57
2023/10/11 04:54:15;;;;;;;3.33;3.00;;;21.90;99.90;;;;;;5013290;28;20465;-57
2023/10/11 04:56:55;;;;;;;3.40;3.10;;;22.00;99.90;;;;;;5007543;28;20584;-58
2023/10/11 04:59:36;;;;;;;3.53;3.23;;;21.90;99.90;;;;;;5008385;28;20452;-53
2023/10/11 05:02:08;;;;;;;4.83;3.53;;;21.90;99.90;;;;;;5014537;28;20469;-56
2023/10/11 05:04:44;;;;;;;3.63;2.97;;;21.90;99.90;;;;;;5008966;28;20491;-58
2023/10/11 05:07:13;;;;;;;4.00;3.60;;;21.90;99.90;;;;;;5012194;28;20461;-56
2023/10/11 05:09:41;;;;;;;3.50;3.20;;;21.90;99.90;;;;;;5012436;28;20481;-54
2023/10/11 05:12:10;;;;;;;3.60;3.30;;;21.90;99.90;;;;;;5011608;28;20458;-59
2023/10/11 05:14:56;;;;;;;3.53;2.80;;;21.90;99.90;;;;;;5007548;28;20478;-57
2023/10/11 05:20:23;;;;;;;3.07;2.50;;;22.00;99.90;;;;;;5015261;28;21349;-54
2023/10/11 05:22:49;;;;;;;4.00;3.20;;;21.90;99.90;;;;;;5015351;28;20935;-55
2023/10/11 05:25:39;;;;;;;4.03;3.63;;;21.90;99.90;;;;;;5017168;28;20457;-59
2023/10/11 05:28:21;;;;;;;3.80;3.13;;;21.90;99.90;;;;;;5010833;28;20455;-57
2023/10/11 05:31:01;;;;;;;5.00;2.90;;;21.90;99.90;;;;;;5011101;28;20469;-58
2023/10/11 05:33:41;;;;;;;3.80;3.00;;;21.90;99.90;;;;;;5011831;28;20548;-51
2023/10/11 05:36:17;;;;;;;4.70;3.77;;;21.90;99.90;;;;;;5019223;28;20512;-56
2023/10/11 05:52:28;;;;;;;3.17;2.80;;;21.80;99.90;;;;;;5013984;28;20547;-57
2023/10/11 05:54:56;;;;;;;3.57;2.73;;;21.90;99.90;;;;;;5016425;28;20480;-53
2023/10/11 05:57:25;;;;;;;2.93;2.63;;;21.90;99.90;;;;;;5017682;28;20470;-55
2023/10/11 05:59:51;;;;;;;3.67;2.90;;;21.90;99.90;;;;;;5018876;28;20462;-55
2023/10/11 06:02:19;;;;;;;3.87;3.30;;;21.90;99.90;;;;;;5012779;28;20459;-57
2023/10/11 06:04:47;;;;;;;3.40;2.67;;;21.80;99.90;;;;;;5013674;28;20468;-54
2023/10/11 06:07:19;;;;;;;3.27;2.90;;;21.90;99.90;;;;;;5018348;28;20457;-60
2023/10/11 06:09:52;;;;;;;3.00;2.70;;;21.80;99.90;;;;;;5016167;28;20458;-58
2023/10/11 06:12:26;;;;;;;2.70;2.50;;;21.80;99.90;;;;;;5017551;28;20449;-58
2023/10/11 06:14:54;;;;;;;3.27;2.80;;;21.90;99.90;;;;;;5017893;28;20500;-58
2023/10/11 06:17:22;;;;;;;2.90;2.70;;;21.90;99.90;;;;;;5009312;28;20472;-52
2023/10/11 06:19:54;;;;;;;2.70;2.17;;;21.90;99.90;;;;;;5016413;28;20465;-56
2023/10/11 06:22:24;;;;;;;3.70;3.17;;;21.90;99.90;;;;;;5013737;28;20449;-59
2023/10/11 06:24:55;;;;;;;3.20;2.87;;;21.90;99.90;;;;;;5015190;28;20462;-57
2023/10/11 06:30:09;;;;;;;3.20;2.90;;;21.90;99.90;;;;;;5015071;28;22018;-58
2023/10/11 06:32:36;;;;;;;3.53;3.13;;;21.80;99.90;;;;;;5015940;28;20469;-57
2023/10/11 06:35:05;;;;;;;5.50;2.47;;;21.80;99.90;;;;;;5017029;28;20480;-54
2023/10/11 06:37:34;;;;;;;3.90;3.27;;;21.90;99.90;;;;;;5016207;28;20462;-54
2023/10/11 06:40:08;;;;;;;3.47;3.17;;;21.80;99.90;;;;;;5014058;28;21578;-53
2023/10/11 06:42:35;;;;;;;3.63;2.83;;;21.90;99.90;;;;;;5016902;28;20469;-57
2023/10/11 06:45:05;;;;;;;3.70;3.10;;;21.80;99.90;;;;;;5014359;28;20455;-54
2023/10/11 06:47:33;;;;;;;3.90;2.60;;;21.80;99.90;;;;;;5014551;28;20463;-52
2023/10/11 06:50:10;;;;;;;2.63;2.23;;;21.80;99.90;;;;;;5012657;28;20544;-54
2023/10/11 06:52:42;;;;;;;3.23;2.63;;;21.80;99.90;;;;;;5016633;28;21387;-53
2023/10/11 06:55:18;;;;;;;3.67;3.13;;;21.80;99.90;;;;;;5014993;28;20486;-57
2023/10/11 06:57:50;;;;;;;3.77;2.90;;;21.80;99.90;;;;;;5015691;28;20472;-57
2023/10/11 07:00:24;;;;;;;4.00;3.03;;;21.80;99.90;;;;;;5011696;28;20462;-57
2023/10/11 07:02:53;;;;;;;5.97;3.40;;;21.80;99.90;;;;;;5016445;28;20445;-54
2023/10/11 07:05:20;;;;;;;3.00;2.37;;;21.90;99.90;;;;;;5015464;28;20958;-59
2023/10/11 07:07:48;;;;;;;2.83;2.60;;;21.90;99.90;;;;;;5017059;28;21265;-58
2023/10/11 07:10:29;;;;;;;3.40;2.70;;;21.90;99.90;;;;;;5011183;28;21060;-55
2023/10/11 07:13:04;;;;;;;3.83;2.77;;;21.90;99.90;;;;;;5012961;28;20589;-58
2023/10/11 07:15:42;;;;;;;3.17;2.80;;;21.90;99.90;;;;;;5014492;28;20486;-56
2023/10/11 07:18:11;;;;;;;3.40;3.10;;;22.00;99.90;;;;;;5014834;28;20461;-59
2023/10/11 07:20:58;;;;;;;3.97;3.03;;;22.00;99.90;;;;;;5010288;28;20473;-57
2023/10/11 07:23:34;;;;;;;3.10;2.80;;;22.00;99.90;;;;;;5018066;28;20484;-55
2023/10/11 07:28:50;;;;;;;2.90;2.40;;;22.10;99.90;;;;;;5009517;28;21068;-56
2023/10/11 07:31:17;;;;;;;4.93;3.67;;;22.10;99.90;;;;;;5011672;28;20462;-56
2023/10/11 07:33:49;;;;;;;4.90;2.70;;;22.10;99.90;;;;;;5016921;28;20481;-53
2023/10/11 07:36:18;;;;;;;2.43;2.23;;;22.30;99.90;;;;;;5012169;28;20841;-58
2023/10/11 07:38:50;;;;;;;4.47;2.80;;;22.10;99.90;;;;;;5014053;28;20453;-60
2023/10/11 07:41:24;;;;;;;3.23;2.80;;;22.30;99.90;;;;;;5010785;28;20607;-57
2023/10/11 07:43:51;;;;;;;6.30;3.10;;;22.10;99.90;;;;;;5015314;28;21055;-59
2023/10/11 07:46:19;;;;;;;4.07;3.13;;;22.20;99.90;;;;;;5013683;28;20585;-60
2023/10/11 07:48:46;;;;;;;4.40;2.83;;;22.20;99.90;;;;;;5011711;28;20455;-58
2023/10/11 07:51:13;;;;;;;4.10;3.70;;;22.20;99.90;;;;;;5010063;28;21060;-58
2023/10/11 07:53:41;;;;;;;3.30;2.80;;;22.30;99.90;;;;;;5010194;28;21334;-59
2023/10/11 07:56:08;;;;;;;3.33;2.50;;;22.30;99.90;;;;;;5010017;28;21013;-57
2023/10/11 07:58:44;;;;;;;3.50;2.93;;;22.30;99.90;;;;;;5012697;28;21101;-54
2023/10/11 08:01:24;;;;;;;3.33;3.03;;;22.30;99.90;;;;;;5010428;28;20467;-56
2023/10/11 08:03:51;;;;;;;4.53;3.03;;;22.30;99.90;;;;;;5014609;28;20998;-56
2023/10/11 08:06:23;;;;;;;4.20;3.10;;;22.40;99.90;;;;;;5013452;28;20461;-54
2023/10/11 08:08:51;;;;;;;3.43;3.10;;;22.30;99.90;;;;;;5009337;28;20461;-56
2023/10/11 08:11:20;;;;;;;3.10;2.80;;;22.40;99.90;;;;;;5014822;28;20473;-56
2023/10/11 08:13:50;;;;;;;3.80;2.80;;;22.30;99.90;;;;;;5011464;28;20564;-60
2023/10/11 08:16:18;;;;;;;7.57;3.30;;;22.40;99.90;;;;;;5012052;28;20488;-60
2023/10/11 08:18:48;;;;;;;4.33;3.10;;;22.50;99.90;;;;;;5006031;28;20842;-62
2023/10/11 08:21:15;;;;;;;3.37;2.40;;;22.40;99.90;;;;;;5010946;28;20470;-62
2023/10/11 08:23:44;;;;;;;3.10;2.23;;;22.40;99.90;;;;;;5012482;28;20961;-60
2023/10/11 08:26:14;;;;;;;5.30;3.50;;;22.40;99.90;;;;;;5017427;28;20474;-63
2023/10/11 08:28:47;;;;;;;4.90;3.27;;;22.40;99.90;;;;;;5013922;28;20464;-59
2023/10/11 08:31:27;;;;;;;6.57;3.50;;;22.50;99.90;;;;;;5010889;28;20470;-59
2023/10/11 08:33:54;;;;;;;4.67;2.80;;;22.50;99.90;;;;;;5012825;28;20584;-59
2023/10/11 08:36:21;;;;;;;4.20;3.80;;;22.50;99.90;;;;;;5015101;28;20739;-56
2023/10/11 08:38:48;;;;;;;6.63;3.00;;;22.50;99.90;;;;;;5013429;28;20477;-57
2023/10/11 08:41:18;;;;;;;3.90;3.30;;;22.50;99.90;;;;;;5014669;28;20465;-59
2023/10/11 08:43:48;;;;;;;3.70;3.27;;;22.50;99.90;;;;;;5014377;28;20472;-58
2023/10/11 08:46:18;;;;;;;4.93;3.37;;;22.60;99.90;;;;;;5016947;28;20469;-52
2023/10/11 08:48:49;;;;;;;5.67;3.10;;;22.50;99.90;;;;;;5015811;28;20458;-53
2023/10/11 08:51:22;;;;;;;8.23;3.40;;;22.60;99.90;;;;;;5016672;28;20495;-59
2023/10/11 08:53:54;;;;;;;3.60;3.13;;;22.70;99.90;;;;;;5016415;28;21086;-54
2023/10/11 08:56:22;;;;;;;4.63;3.17;;;22.60;99.90;;;;;;5014795;28;21052;-58
2023/10/11 08:58:51;;;;;;;4.20;3.17;;;22.70;99.90;;;;;;5017330;28;21017;-56
2023/10/11 09:01:19;;;;;;;3.93;3.27;;;22.60;99.90;;;;;;5015862;28;20467;-54
2023/10/11 09:04:03;;;;;;;4.00;3.50;;;22.70;99.90;;;;;;5017638;28;20465;-60
2023/10/11 09:06:31;;;;;;;4.93;2.87;;;22.70;99.90;;;;;;5016455;28;20473;-55
2023/10/11 09:09:00;;;;;;;6.10;3.23;;;22.70;99.90;;;;;;5012834;28;20465;-55
2023/10/11 09:11:29;;;;;;;4.90;3.60;;;22.70;99.90;;;;;;5018057;28;20558;-57
2023/10/11 09:14:11;;;;;;;3.53;2.77;;;22.80;99.90;;;;;;5019097;28;20454;-58
2023/10/11 09:16:39;;;;;;;5.70;2.87;;;22.70;99.90;;;;;;5016023;28;20998;-57
2023/10/11 09:19:09;;;;;;;3.67;3.30;;;22.70;99.90;;;;;;5019902;28;21183;-58
2023/10/11 09:21:36;;;;;;;3.20;2.90;;;22.80;99.90;;;;;;5019811;28;20483;-55
2023/10/11 09:24:04;;;;;;;7.60;4.07;;;22.80;99.90;;;;;;5017335;28;20557;-60
2023/10/11 09:26:34;;;;;;;5.40;2.77;;;22.80;99.90;;;;;;5016336;28;20482;-57
2023/10/11 09:29:03;;;;;;;3.07;2.73;;;22.80;99.90;;;;;;5016332;28;20551;-58
2023/10/11 09:31:31;;;;;;;9.17;3.73;;;22.90;99.90;;;;;;5012240;28;22420;-53
2023/10/11 09:34:02;;;;;;;3.60;3.10;;;22.80;99.90;;;;;;5016515;28;20569;-56
2023/10/11 09:36:29;;;;;;;6.87;3.10;;;22.90;99.90;;;;;;5018306;28;20985;-56
2023/10/11 09:38:57;;;;;;;2.90;2.57;;;22.80;99.90;;;;;;5021428;28;21290;-55
2023/10/11 09:41:28;;;;;;;2.70;2.50;;;22.90;99.90;;;;;;5019030;28;20461;-58
2023/10/11 09:43:58;;;;;;;3.20;2.90;;;22.90;99.90;;;;;;5017696;28;20459;-53
2023/10/11 09:46:31;;;;;;;4.67;3.00;;;22.80;99.90;;;;;;5018366;28;20490;-56
2023/10/11 09:49:01;;;;;;;3.53;3.07;;;22.90;99.90;;;;;;5015060;28;20583;-59
2023/10/11 09:51:28;;;;;;;3.60;3.10;;;22.80;99.90;;;;;;5016445;28;20456;-58
2023/10/11 09:54:01;;;;;;;4.67;3.27;;;22.80;99.90;;;;;;5008668;28;20959;-58
2023/10/11 09:56:40;;;;;;;3.23;3.03;;;22.80;99.90;;;;;;5017959;28;20483;-56
2023/10/11 09:59:22;;;;;;;5.67;3.03;;;22.90;99.90;;;;;;5018037;28;20573;-59
2023/10/11 10:01:56;;;;;;;5.00;3.30;;;22.90;99.90;;;;;;5017468;28;20451;-54
2023/10/11 10:05:04;;;;;;;4.07;3.37;;;22.90;99.90;;;;;;5016220;28;20487;-60
2023/10/11 10:07:33;;;;;;;3.47;2.70;;;22.90;99.90;;;;;;5014797;28;20462;-53
2023/10/11 10:10:01;;;;;;;8.20;2.90;;;22.90;99.90;;;;;;5019197;28;20650;-58
2023/10/11 10:12:33;;;;;;;5.73;3.57;;;22.90;99.90;;;;;;5016920;28;20464;-56
2023/10/11 10:15:04;;;;;;;7.60;3.07;;;22.90;99.90;;;;;;5015372;28;20489;-57
2023/10/11 10:17:31;;;;;;;5.87;3.27;;;22.90;99.90;;;;;;5014312;28;20838;-55
2023/10/11 10:20:41;;;;;;;9.20;3.40;;;22.90;99.90;;;;;;5005211;28;20459;-59
2023/10/11 10:23:26;;;;;;;9.50;3.77;;;22.90;99.90;;;;;;5016177;28;20461;-59
2023/10/11 10:26:38;;;;;;;6.57;3.23;;;22.90;99.90;;;;;;5012316;28;20462;-57
2023/10/11 10:29:07;;;;;;;7.83;4.40;;;22.90;99.90;;;;;;5013649;28;20483;-57
2023/10/11 10:31:34;;;;;;;5.87;3.20;;;22.90;99.90;;;;;;5014907;28;21055;-56
2023/10/11 10:34:29;;;;;;;7.40;4.10;;;22.90;99.90;;;;;;5016954;28;20464;-54
2023/10/11 10:37:02;;;;;;;3.80;2.93;;;23.00;99.90;;;;;;5009810;28;20508;-58
2023/10/11 10:39:48;;;;;;;6.67;3.33;;;22.90;99.90;;;;;;5016615;28;20463;-55
2023/10/11 10:42:17;;;;;;;6.63;3.10;;;22.80;99.90;;;;;;5014954;28;20450;-56
2023/10/11 10:44:51;;;;;;;4.70;3.07;;;22.90;99.90;;;;;;5010177;28;20457;-59
2023/10/11 10:47:28;;;;;;;3.80;3.33;;;22.90;99.90;;;;;;5015309;28;20908;-57
2023/10/11 10:49:55;;;;;;;6.60;3.50;;;22.90;99.90;;;;;;5014611;28;20579;-55
2023/10/11 10:52:29;;;;;;;8.70;3.77;;;22.90;99.90;;;;;;5015259;28;20467;-58
2023/10/11 10:55:03;;;;;;;2.93;2.60;;;22.90;99.90;;;;;;5013564;28;20501;-56
2023/10/11 10:57:32;;;;;;;4.60;3.30;;;22.90;99.90;;;;;;5019436;28;20514;-56
2023/10/11 11:00:05;;;;;;;5.20;3.80;;;22.90;99.90;;;;;;5018383;28;20458;-60
2023/10/11 11:02:35;;;;;;;7.73;3.30;;;22.90;99.90;;;;;;5007205;28;20933;-57
2023/10/11 11:05:03;;;;;;;4.80;2.90;;;22.90;99.90;;;;;;5011706;28;20825;-57
2023/10/11 11:07:33;;;;;;;4.07;2.97;;;23.10;99.90;;;;;;5011971;28;20468;-60
2023/10/11 11:10:01;;;;;;;9.90;3.67;;;23.00;99.90;;;;;;5018063;28;20459;-59
2023/10/11 11:12:28;;;;;;;5.80;3.50;;;23.00;99.90;;;;;;5018856;28;20878;-53
2023/10/11 11:14:56;;;;;;;5.40;3.43;;;22.90;99.90;;;;;;5013211;28;21405;-54
2023/10/11 11:17:23;;;;;;;8.13;3.27;;;22.90;99.90;;;;;;5010540;28;20483;-56
2023/10/11 11:20:14;;;;;;;6.50;3.80;;;23.00;99.90;;;;;;5014746;28;20578;-59
2023/10/11 11:22:45;;;;;;;3.47;3.17;;;23.00;99.90;;;;;;5016637;28;20984;-54
2023/10/11 11:25:26;;;;;;;5.93;3.07;;;22.90;99.90;;;;;;5012563;28;20465;-60
2023/10/11 11:28:06;;;;;;;5.83;2.90;;;22.90;99.90;;;;;;5016180;28;21190;-57
2023/10/11 11:30:33;;;;;;;5.27;3.30;;;23.00;99.90;;;;;;5002420;28;20451;-56
2023/10/11 11:33:08;;;;;;;4.50;3.07;;;23.00;99.90;;;;;;5013856;28;20459;-59
2023/10/11 11:35:43;;;;;;;5.17;3.37;;;22.90;99.90;;;;;;5013504;28;20616;-55
2023/10/11 11:38:20;;;;;;;4.53;3.23;;;22.90;99.90;;;;;;5015201;28;21061;-58
2023/10/11 11:40:47;;;;;;;5.73;3.30;;;23.00;99.90;;;;;;5016705;28;20460;-58
2023/10/11 11:43:17;;;;;;;4.30;3.50;;;22.90;99.90;;;;;;5012886;28;20546;-58
2023/10/11 11:45:44;;;;;;;6.63;3.40;;;22.90;99.90;;;;;;5014518;28;20461;-52
2023/10/11 11:48:13;;;;;;;5.50;3.50;;;22.90;99.90;;;;;;5017907;28;20458;-56
2023/10/11 11:50:39;;;;;;;3.50;2.97;;;23.00;99.90;;;;;;5011564;28;20458;-56
2023/10/11 11:53:07;;;;;;;5.17;4.03;;;23.00;99.90;;;;;;5012790;28;20472;-56
2023/10/11 11:55:35;;;;;;;3.00;2.70;;;23.00;99.90;;;;;;5014080;28;20462;-60
2023/10/11 11:58:10;;;;;;;4.20;2.73;;;22.90;99.90;;;;;;5013944;28;20547;-60
2023/10/11 12:00:39;;;;;;;4.13;3.20;;;23.00;99.90;;;;;;5011317;28;21510;-57
2023/10/11 12:03:08;;;;;;;5.37;3.30;;;22.90;99.90;;;;;;5010001;28;21408;-57
2023/10/11 12:05:40;;;;;;;5.83;3.23;;;23.00;99.90;;;;;;5011894;28;21170;-59
2023/10/11 12:08:08;;;;;;;5.10;3.13;;;23.00;99.90;;;;;;5014464;28;21276;-56
2023/10/11 12:10:37;;;;;;;5.00;3.10;;;23.10;99.90;;;;;;5014868;28;20461;-56
2023/10/11 12:13:07;;;;;;;4.70;3.07;;;22.90;99.90;;;;;;5011892;28;20482;-57
2023/10/11 12:15:35;;;;;;;3.90;2.80;;;23.00;99.90;;;;;;5009948;28;20447;-59
2023/10/11 12:18:05;;;;;;;6.30;3.20;;;22.90;99.90;;;;;;5013082;28;20474;-59
2023/10/11 12:20:34;;;;;;;3.23;2.93;;;22.90;99.90;;;;;;5013337;28;20458;-57
2023/10/11 12:23:07;;;;;;;8.53;2.80;;;22.90;99.90;;;;;;5011581;28;21901;-53
2023/10/11 12:25:37;;;;;;;2.90;2.60;;;23.10;99.90;;;;;;5014780;28;20490;-58
2023/10/11 12:28:05;;;;;;;4.73;3.40;;;22.90;99.90;;;;;;5006937;28;20456;-56
2023/10/11 12:30:35;;;;;;;4.70;3.07;;;23.00;99.90;;;;;;5011731;28;20469;-57
2023/10/11 12:33:06;;;;;;;3.33;2.90;;;23.00;99.90;;;;;;5014606;28;20446;-52
2023/10/11 12:35:36;;;;;;;5.17;3.47;;;22.90;99.90;;;;;;5010635;28;20544;-52
2023/10/11 12:38:04;;;;;;;2.93;2.43;;;23.00;99.90;;;;;;5012721;28;20485;-55
2023/10/11 12:40:34;;;;;;;5.30;3.13;;;22.90;99.90;;;;;;5011924;28;20481;-59
2023/10/11 12:43:07;;;;;;;2.93;2.27;;;23.00;99.90;;;;;;5012799;28;20458;-57
2023/10/11 12:45:34;;;;;;;4.10;3.10;;;22.90;99.90;;;;;;5013970;28;20506;-58
2023/10/11 12:48:06;;;;;;;5.13;3.90;;;23.00;99.90;;;;;;5012084;28;20472;-60
2023/10/11 12:50:36;;;;;;;4.67;2.90;;;23.00;99.90;;;;;;5014063;28;21113;-54
2023/10/11 12:53:10;;;;;;;3.50;2.93;;;22.90;99.90;;;;;;5010159;28;20464;-56
2023/10/11 12:55:38;;;;;;;3.00;2.70;;;23.00;99.90;;;;;;5012976;28;20461;-54
2023/10/11 12:58:07;;;;;;;4.83;3.40;;;22.90;99.90;;;;;;5015064;28;20513;-58
2023/10/11 13:00:37;;;;;;;5.03;3.53;;;22.90;99.90;;;;;;5015513;28;20465;-55
2023/10/11 13:03:15;;;;;;;3.37;3.07;;;22.90;99.90;;;;;;5010181;28;20449;-56
2023/10/11 13:05:45;;;;;;;4.63;2.53;;;22.90;99.90;;;;;;5010135;28;20458;-57
2023/10/11 13:08:12;;;;;;;3.70;3.00;;;22.90;99.90;;;;;;5013563;28;20877;-57
2023/10/11 13:10:43;;;;;;;3.40;3.10;;;23.00;99.90;;;;;;5013341;28;20513;-56
2023/10/11 13:13:11;;;;;;;3.40;2.57;;;22.90;99.90;;;;;;5014363;28;20840;-52
2023/10/11 13:15:39;;;;;;;6.13;4.20;;;22.90;99.90;;;;;;5017430;28;20465;-57
2023/10/11 13:18:09;;;;;;;4.50;3.27;;;23.00;99.90;;;;;;5011237;28;21203;-58
2023/10/11 13:20:37;;;;;;;5.17;2.33;;;22.90;99.90;;;;;;5015420;28;20461;-59
2023/10/11 13:23:06;;;;;;;3.50;3.20;;;23.00;99.90;;;;;;5013804;28;21052;-55
2023/10/11 13:25:33;;;;;;;3.60;2.90;;;22.90;99.90;;;;;;5017390;28;20481;-56
2023/10/11 13:28:03;;;;;;;3.50;3.20;;;22.90;99.90;;;;;;5012539;28;20827;-56
2023/10/11 13:30:36;;;;;;;3.70;3.30;;;23.00;99.90;;;;;;5007129;28;20468;-57